sensor_id;sensor_type;location;lat;lon;timestamp;P1;durP1;ratioP1;P2;durP2;ratioP2
65853;SDS011;52627;48.838;2.402;2023-08-12T00:00:04;6.00;;;3.00;;
65853;SDS011;52627;48.838;2.402;2023-08-12T00:02:50;9.70;;;3.70;;
65853;SDS011;52627;48.838;2.402;2023-08-12T00:05:18;5.70;;;3.20;;
65853;SDS011;52627;48.838;2.402;2023-08-12T00:07:45;8.20;;;3.80;;
65853;SDS011;52627;48.838;2.402;2023-08-12T00:10:13;5.70;;;3.30;;
65853;SDS011;52627;48.838;2.402;2023-08-12T00:12:40;6.60;;;3.70;;
65853;SDS011;52627;48.838;2.402;2023-08-12T00:15:09;7.00;;;3.70;;
65853;SDS011;52627;48.838;2.402;2023-08-12T00:17:37;8.60;;;3.60;;
65853;SDS011;52627;48.838;2.402;2023-08-12T00:20:10;8.50;;;3.40;;
65853;SDS011;52627;48.838;2.402;2023-08-12T00:22:40;7.00;;;3.40;;
65853;SDS011;52627;48.838;2.402;2023-08-12T00:25:08;8.50;;;3.80;;
65853;SDS011;52627;48.838;2.402;2023-08-12T00:27:36;6.80;;;3.60;;
65853;SDS011;52627;48.838;2.402;2023-08-12T00:30:05;6.10;;;3.40;;
65853;SDS011;52627;48.838;2.402;2023-08-12T00:32:33;8.20;;;3.90;;
65853;SDS011;52627;48.838;2.402;2023-08-12T00:35:01;8.00;;;3.20;;
65853;SDS011;52627;48.838;2.402;2023-08-12T00:37:30;7.30;;;3.50;;
65853;SDS011;52627;48.838;2.402;2023-08-12T00:39:57;9.30;;;3.70;;
65853;SDS011;52627;48.838;2.402;2023-08-12T00:42:25;7.30;;;3.40;;
65853;SDS011;52627;48.838;2.402;2023-08-12T00:44:52;8.40;;;3.90;;
65853;SDS011;52627;48.838;2.402;2023-08-12T00:47:20;10.30;;;4.30;;
65853;SDS011;52627;48.838;2.402;2023-08-12T00:49:49;7.90;;;3.40;;
65853;SDS011;52627;48.838;2.402;2023-08-12T00:52:17;5.80;;;3.60;;
65853;SDS011;52627;48.838;2.402;2023-08-12T00:54:45;10.10;;;4.00;;
65853;SDS011;52627;48.838;2.402;2023-08-12T00:57:13;7.70;;;3.70;;
65853;SDS011;52627;48.838;2.402;2023-08-12T00:59:41;7.40;;;3.70;;
65853;SDS011;52627;48.838;2.402;2023-08-12T01:02:11;7.70;;;4.10;;
65853;SDS011;52627;48.838;2.402;2023-08-12T01:04:39;11.20;;;3.90;;
65853;SDS011;52627;48.838;2.402;2023-08-12T01:07:07;10.20;;;4.00;;
65853;SDS011;52627;48.838;2.402;2023-08-12T01:09:34;7.70;;;4.10;;
65853;SDS011;52627;48.838;2.402;2023-08-12T01:12:23;8.20;;;4.20;;
65853;SDS011;52627;48.838;2.402;2023-08-12T01:15:13;8.60;;;4.00;;
65853;SDS011;52627;48.838;2.402;2023-08-12T01:17:43;7.90;;;3.80;;
65853;SDS011;52627;48.838;2.402;2023-08-12T01:20:11;7.30;;;4.00;;
65853;SDS011;52627;48.838;2.402;2023-08-12T01:22:44;8.10;;;4.10;;
65853;SDS011;52627;48.838;2.402;2023-08-12T01:25:11;7.60;;;3.70;;
65853;SDS011;52627;48.838;2.402;2023-08-12T01:27:39;8.80;;;4.30;;
65853;SDS011;52627;48.838;2.402;2023-08-12T01:30:07;6.70;;;4.10;;
65853;SDS011;52627;48.838;2.402;2023-08-12T01:32:54;10.40;;;4.50;;
65853;SDS011;52627;48.838;2.402;2023-08-12T01:35:33;10.30;;;4.60;;
65853;SDS011;52627;48.838;2.402;2023-08-12T01:38:05;14.10;;;5.90;;
65853;SDS011;52627;48.838;2.402;2023-08-12T01:40:35;8.60;;;4.20;;
65853;SDS011;52627;48.838;2.402;2023-08-12T01:43:04;8.20;;;4.30;;
65853;SDS011;52627;48.838;2.402;2023-08-12T01:45:31;8.30;;;4.80;;
65853;SDS011;52627;48.838;2.402;2023-08-12T01:47:59;7.70;;;3.90;;
65853;SDS011;52627;48.838;2.402;2023-08-12T01:50:27;10.70;;;4.40;;
65853;SDS011;52627;48.838;2.402;2023-08-12T01:52:54;7.00;;;3.80;;
65853;SDS011;52627;48.838;2.402;2023-08-12T01:55:22;7.20;;;4.40;;
65853;SDS011;52627;48.838;2.402;2023-08-12T01:57:50;6.50;;;3.40;;
65853;SDS011;52627;48.838;2.402;2023-08-12T02:00:18;8.60;;;3.90;;
65853;SDS011;52627;48.838;2.402;2023-08-12T02:02:45;6.70;;;4.00;;
65853;SDS011;52627;48.838;2.402;2023-08-12T02:05:14;7.50;;;4.10;;
65853;SDS011;52627;48.838;2.402;2023-08-12T02:07:42;7.80;;;3.70;;
65853;SDS011;52627;48.838;2.402;2023-08-12T02:10:10;8.10;;;3.50;;
65853;SDS011;52627;48.838;2.402;2023-08-12T02:12:37;6.80;;;3.60;;
65853;SDS011;52627;48.838;2.402;2023-08-12T02:15:05;7.30;;;3.00;;
65853;SDS011;52627;48.838;2.402;2023-08-12T02:17:33;6.80;;;3.70;;
65853;SDS011;52627;48.838;2.402;2023-08-12T02:20:01;6.30;;;3.40;;
65853;SDS011;52627;48.838;2.402;2023-08-12T02:22:28;6.30;;;3.30;;
65853;SDS011;52627;48.838;2.402;2023-08-12T02:24:56;10.30;;;3.50;;
65853;SDS011;52627;48.838;2.402;2023-08-12T02:27:24;8.30;;;3.60;;
65853;SDS011;52627;48.838;2.402;2023-08-12T02:29:51;8.70;;;3.60;;
65853;SDS011;52627;48.838;2.402;2023-08-12T02:32:19;8.70;;;3.70;;
65853;SDS011;52627;48.838;2.402;2023-08-12T02:34:46;9.20;;;4.00;;
65853;SDS011;52627;48.838;2.402;2023-08-12T02:37:15;8.00;;;4.00;;
65853;SDS011;52627;48.838;2.402;2023-08-12T02:39:42;8.50;;;3.90;;
65853;SDS011;52627;48.838;2.402;2023-08-12T02:42:10;9.20;;;4.20;;
65853;SDS011;52627;48.838;2.402;2023-08-12T02:44:37;6.40;;;3.90;;
65853;SDS011;52627;48.838;2.402;2023-08-12T02:47:05;7.70;;;3.50;;
65853;SDS011;52627;48.838;2.402;2023-08-12T02:49:32;7.60;;;3.50;;
65853;SDS011;52627;48.838;2.402;2023-08-12T02:51:59;6.20;;;3.30;;
65853;SDS011;52627;48.838;2.402;2023-08-12T02:54:27;5.80;;;2.90;;
65853;SDS011;52627;48.838;2.402;2023-08-12T02:56:54;7.50;;;3.20;;
65853;SDS011;52627;48.838;2.402;2023-08-12T02:59:22;8.00;;;3.00;;
65853;SDS011;52627;48.838;2.402;2023-08-12T03:01:52;6.40;;;2.80;;
65853;SDS011;52627;48.838;2.402;2023-08-12T03:04:19;5.40;;;3.20;;
65853;SDS011;52627;48.838;2.402;2023-08-12T03:06:47;4.30;;;2.50;;
65853;SDS011;52627;48.838;2.402;2023-08-12T03:09:14;6.70;;;3.20;;
65853;SDS011;52627;48.838;2.402;2023-08-12T03:11:44;5.60;;;3.00;;
65853;SDS011;52627;48.838;2.402;2023-08-12T03:14:11;5.70;;;3.20;;
65853;SDS011;52627;48.838;2.402;2023-08-12T03:16:39;5.20;;;2.70;;
65853;SDS011;52627;48.838;2.402;2023-08-12T03:19:06;5.80;;;2.80;;
65853;SDS011;52627;48.838;2.402;2023-08-12T03:21:33;4.90;;;2.70;;
65853;SDS011;52627;48.838;2.402;2023-08-12T03:24:01;5.40;;;2.90;;
65853;SDS011;52627;48.838;2.402;2023-08-12T03:26:29;6.00;;;2.70;;
65853;SDS011;52627;48.838;2.402;2023-08-12T03:28:56;5.70;;;2.90;;
65853;SDS011;52627;48.838;2.402;2023-08-12T03:31:24;5.60;;;2.90;;
65853;SDS011;52627;48.838;2.402;2023-08-12T03:33:51;5.70;;;2.90;;
65853;SDS011;52627;48.838;2.402;2023-08-12T03:36:20;5.90;;;3.00;;
65853;SDS011;52627;48.838;2.402;2023-08-12T03:38:47;5.50;;;3.10;;
65853;SDS011;52627;48.838;2.402;2023-08-12T03:41:15;5.70;;;3.00;;
65853;SDS011;52627;48.838;2.402;2023-08-12T03:43:42;6.20;;;3.00;;
65853;SDS011;52627;48.838;2.402;2023-08-12T03:46:10;4.80;;;2.70;;
65853;SDS011;52627;48.838;2.402;2023-08-12T03:48:37;7.40;;;3.30;;
65853;SDS011;52627;48.838;2.402;2023-08-12T03:51:04;5.90;;;3.00;;
65853;SDS011;52627;48.838;2.402;2023-08-12T03:53:32;6.70;;;2.80;;
65853;SDS011;52627;48.838;2.402;2023-08-12T03:55:59;5.70;;;2.80;;
65853;SDS011;52627;48.838;2.402;2023-08-12T03:58:27;4.90;;;2.90;;
65853;SDS011;52627;48.838;2.402;2023-08-12T04:00:54;6.40;;;3.00;;
65853;SDS011;52627;48.838;2.402;2023-08-12T04:03:22;6.90;;;2.90;;
65853;SDS011;52627;48.838;2.402;2023-08-12T04:05:50;5.30;;;3.00;;
65853;SDS011;52627;48.838;2.402;2023-08-12T04:08:22;5.50;;;2.90;;
65853;SDS011;52627;48.838;2.402;2023-08-12T04:10:51;6.00;;;3.00;;
65853;SDS011;52627;48.838;2.402;2023-08-12T04:13:19;6.40;;;2.90;;
65853;SDS011;52627;48.838;2.402;2023-08-12T04:15:50;4.60;;;2.50;;
65853;SDS011;52627;48.838;2.402;2023-08-12T04:18:20;5.90;;;2.80;;
65853;SDS011;52627;48.838;2.402;2023-08-12T04:20:49;7.80;;;2.90;;
65853;SDS011;52627;48.838;2.402;2023-08-12T04:23:18;6.90;;;3.10;;
65853;SDS011;52627;48.838;2.402;2023-08-12T04:25:47;5.50;;;3.20;;
65853;SDS011;52627;48.838;2.402;2023-08-12T04:28:15;4.50;;;2.90;;
65853;SDS011;52627;48.838;2.402;2023-08-12T04:30:47;7.10;;;3.00;;
65853;SDS011;52627;48.838;2.402;2023-08-12T04:33:15;6.40;;;3.20;;
65853;SDS011;52627;48.838;2.402;2023-08-12T04:35:43;7.60;;;3.40;;
65853;SDS011;52627;48.838;2.402;2023-08-12T04:38:11;5.30;;;3.00;;
65853;SDS011;52627;48.838;2.402;2023-08-12T04:40:39;6.20;;;2.90;;
65853;SDS011;52627;48.838;2.402;2023-08-12T04:43:10;6.50;;;3.00;;
65853;SDS011;52627;48.838;2.402;2023-08-12T04:45:38;5.40;;;3.00;;
65853;SDS011;52627;48.838;2.402;2023-08-12T04:48:06;5.70;;;2.90;;
65853;SDS011;52627;48.838;2.402;2023-08-12T04:50:36;6.00;;;3.10;;
65853;SDS011;52627;48.838;2.402;2023-08-12T04:53:03;9.80;;;3.10;;
65853;SDS011;52627;48.838;2.402;2023-08-12T04:55:34;5.00;;;2.70;;
65853;SDS011;52627;48.838;2.402;2023-08-12T04:58:02;6.40;;;2.90;;
65853;SDS011;52627;48.838;2.402;2023-08-12T05:00:30;8.00;;;3.40;;
65853;SDS011;52627;48.838;2.402;2023-08-12T05:02:57;5.90;;;3.00;;
65853;SDS011;52627;48.838;2.402;2023-08-12T05:05:26;10.30;;;4.20;;
65853;SDS011;52627;48.838;2.402;2023-08-12T05:07:54;6.40;;;3.70;;
65853;SDS011;52627;48.838;2.402;2023-08-12T05:10:22;6.10;;;3.10;;
65853;SDS011;52627;48.838;2.402;2023-08-12T05:12:49;8.20;;;3.00;;
65853;SDS011;52627;48.838;2.402;2023-08-12T05:15:20;12.90;;;4.10;;
65853;SDS011;52627;48.838;2.402;2023-08-12T05:17:47;7.10;;;3.00;;
65853;SDS011;52627;48.838;2.402;2023-08-12T05:20:15;5.00;;;2.70;;
65853;SDS011;52627;48.838;2.402;2023-08-12T05:22:42;5.70;;;2.80;;
65853;SDS011;52627;48.838;2.402;2023-08-12T05:25:09;5.90;;;3.00;;
65853;SDS011;52627;48.838;2.402;2023-08-12T05:27:37;5.80;;;2.70;;
65853;SDS011;52627;48.838;2.402;2023-08-12T05:30:06;7.40;;;2.60;;
65853;SDS011;52627;48.838;2.402;2023-08-12T05:32:34;5.40;;;2.80;;
65853;SDS011;52627;48.838;2.402;2023-08-12T05:35:01;5.60;;;2.60;;
65853;SDS011;52627;48.838;2.402;2023-08-12T05:37:29;6.00;;;2.70;;
65853;SDS011;52627;48.838;2.402;2023-08-12T05:39:56;6.10;;;2.90;;
65853;SDS011;52627;48.838;2.402;2023-08-12T05:42:24;6.00;;;2.30;;
65853;SDS011;52627;48.838;2.402;2023-08-12T05:44:52;5.10;;;2.30;;
65853;SDS011;52627;48.838;2.402;2023-08-12T05:47:19;5.10;;;2.40;;
65853;SDS011;52627;48.838;2.402;2023-08-12T05:49:47;3.70;;;2.20;;
65853;SDS011;52627;48.838;2.402;2023-08-12T05:52:14;4.40;;;2.40;;
65853;SDS011;52627;48.838;2.402;2023-08-12T05:54:42;5.50;;;2.20;;
65853;SDS011;52627;48.838;2.402;2023-08-12T05:57:10;4.10;;;2.00;;
65853;SDS011;52627;48.838;2.402;2023-08-12T05:59:37;4.70;;;2.40;;
65853;SDS011;52627;48.838;2.402;2023-08-12T06:02:05;4.80;;;2.20;;
65853;SDS011;52627;48.838;2.402;2023-08-12T06:04:33;6.30;;;3.30;;
65853;SDS011;52627;48.838;2.402;2023-08-12T06:07:01;4.50;;;2.10;;
65853;SDS011;52627;48.838;2.402;2023-08-12T06:09:28;4.60;;;2.20;;
65853;SDS011;52627;48.838;2.402;2023-08-12T06:11:56;5.60;;;1.90;;
65853;SDS011;52627;48.838;2.402;2023-08-12T06:14:23;4.30;;;2.00;;
65853;SDS011;52627;48.838;2.402;2023-08-12T06:16:50;3.70;;;1.90;;
65853;SDS011;52627;48.838;2.402;2023-08-12T06:19:18;3.20;;;1.60;;
65853;SDS011;52627;48.838;2.402;2023-08-12T06:21:45;5.60;;;2.00;;
65853;SDS011;52627;48.838;2.402;2023-08-12T06:24:13;5.80;;;1.80;;
65853;SDS011;52627;48.838;2.402;2023-08-12T06:26:40;3.60;;;1.60;;
65853;SDS011;52627;48.838;2.402;2023-08-12T06:29:07;3.90;;;1.50;;
65853;SDS011;52627;48.838;2.402;2023-08-12T06:31:35;4.00;;;1.60;;
65853;SDS011;52627;48.838;2.402;2023-08-12T06:34:03;7.50;;;2.40;;
65853;SDS011;52627;48.838;2.402;2023-08-12T06:36:30;5.40;;;2.40;;
65853;SDS011;52627;48.838;2.402;2023-08-12T06:38:58;6.40;;;2.30;;
65853;SDS011;52627;48.838;2.402;2023-08-12T06:41:25;4.50;;;2.00;;
65853;SDS011;52627;48.838;2.402;2023-08-12T06:43:53;4.80;;;1.70;;
65853;SDS011;52627;48.838;2.402;2023-08-12T06:46:20;7.10;;;2.90;;
65853;SDS011;52627;48.838;2.402;2023-08-12T06:48:48;3.40;;;1.40;;
65853;SDS011;52627;48.838;2.402;2023-08-12T06:51:15;4.40;;;1.40;;
65853;SDS011;52627;48.838;2.402;2023-08-12T06:53:43;4.80;;;1.60;;
65853;SDS011;52627;48.838;2.402;2023-08-12T06:56:10;3.10;;;1.40;;
65853;SDS011;52627;48.838;2.402;2023-08-12T06:58:38;3.80;;;1.60;;
65853;SDS011;52627;48.838;2.402;2023-08-12T07:01:05;3.90;;;1.70;;
65853;SDS011;52627;48.838;2.402;2023-08-12T07:03:33;3.70;;;1.60;;
65853;SDS011;52627;48.838;2.402;2023-08-12T07:06:00;3.90;;;1.70;;
65853;SDS011;52627;48.838;2.402;2023-08-12T07:08:28;5.10;;;1.70;;
65853;SDS011;52627;48.838;2.402;2023-08-12T07:10:55;3.20;;;1.30;;
65853;SDS011;52627;48.838;2.402;2023-08-12T07:13:23;3.00;;;1.40;;
65853;SDS011;52627;48.838;2.402;2023-08-12T07:15:50;3.60;;;1.40;;
65853;SDS011;52627;48.838;2.402;2023-08-12T07:18:18;3.30;;;1.50;;
65853;SDS011;52627;48.838;2.402;2023-08-12T07:20:45;3.60;;;1.70;;
65853;SDS011;52627;48.838;2.402;2023-08-12T07:23:13;6.50;;;2.30;;
65853;SDS011;52627;48.838;2.402;2023-08-12T07:25:40;4.00;;;1.40;;
65853;SDS011;52627;48.838;2.402;2023-08-12T07:28:08;3.30;;;1.60;;
65853;SDS011;52627;48.838;2.402;2023-08-12T07:30:35;3.10;;;1.30;;
65853;SDS011;52627;48.838;2.402;2023-08-12T07:33:04;3.80;;;1.50;;
65853;SDS011;52627;48.838;2.402;2023-08-12T07:35:31;3.30;;;1.70;;
65853;SDS011;52627;48.838;2.402;2023-08-12T07:37:59;3.80;;;1.60;;
65853;SDS011;52627;48.838;2.402;2023-08-12T07:40:26;3.40;;;1.70;;
65853;SDS011;52627;48.838;2.402;2023-08-12T07:42:54;2.80;;;1.40;;
65853;SDS011;52627;48.838;2.402;2023-08-12T07:45:21;2.90;;;1.40;;
65853;SDS011;52627;48.838;2.402;2023-08-12T07:47:50;2.70;;;1.30;;
65853;SDS011;52627;48.838;2.402;2023-08-12T07:50:18;3.70;;;1.70;;
65853;SDS011;52627;48.838;2.402;2023-08-12T07:52:45;4.60;;;1.90;;
65853;SDS011;52627;48.838;2.402;2023-08-12T07:55:13;3.60;;;1.90;;
65853;SDS011;52627;48.838;2.402;2023-08-12T07:57:41;5.70;;;2.20;;
65853;SDS011;52627;48.838;2.402;2023-08-12T08:00:09;6.60;;;1.90;;
65853;SDS011;52627;48.838;2.402;2023-08-12T08:02:37;7.50;;;1.70;;
65853;SDS011;52627;48.838;2.402;2023-08-12T08:05:06;4.40;;;1.90;;
65853;SDS011;52627;48.838;2.402;2023-08-12T08:07:34;7.70;;;1.90;;
65853;SDS011;52627;48.838;2.402;2023-08-12T08:10:02;5.30;;;1.90;;
65853;SDS011;52627;48.838;2.402;2023-08-12T08:12:29;6.30;;;1.90;;
65853;SDS011;52627;48.838;2.402;2023-08-12T08:14:57;6.90;;;1.90;;
65853;SDS011;52627;48.838;2.402;2023-08-12T08:17:24;5.50;;;2.20;;
65853;SDS011;52627;48.838;2.402;2023-08-12T08:19:52;5.00;;;1.80;;
65853;SDS011;52627;48.838;2.402;2023-08-12T08:22:20;4.80;;;2.30;;
65853;SDS011;52627;48.838;2.402;2023-08-12T08:24:47;6.10;;;1.90;;
65853;SDS011;52627;48.838;2.402;2023-08-12T08:27:14;5.90;;;2.10;;
65853;SDS011;52627;48.838;2.402;2023-08-12T08:29:42;7.30;;;2.50;;
65853;SDS011;52627;48.838;2.402;2023-08-12T08:32:10;5.40;;;1.90;;
65853;SDS011;52627;48.838;2.402;2023-08-12T08:34:38;6.00;;;2.00;;
65853;SDS011;52627;48.838;2.402;2023-08-12T08:37:05;7.70;;;2.60;;
65853;SDS011;52627;48.838;2.402;2023-08-12T08:39:33;6.60;;;2.40;;
65853;SDS011;52627;48.838;2.402;2023-08-12T08:42:01;6.30;;;2.40;;
65853;SDS011;52627;48.838;2.402;2023-08-12T08:44:30;6.70;;;2.20;;
65853;SDS011;52627;48.838;2.402;2023-08-12T08:46:58;6.50;;;2.50;;
65853;SDS011;52627;48.838;2.402;2023-08-12T08:49:28;6.30;;;1.90;;
65853;SDS011;52627;48.838;2.402;2023-08-12T08:51:59;5.40;;;2.10;;
65853;SDS011;52627;48.838;2.402;2023-08-12T08:54:27;5.00;;;1.90;;
65853;SDS011;52627;48.838;2.402;2023-08-12T08:56:55;6.80;;;2.40;;
65853;SDS011;52627;48.838;2.402;2023-08-12T08:59:36;6.80;;;2.50;;
65853;SDS011;52627;48.838;2.402;2023-08-12T09:02:04;5.30;;;2.40;;
65853;SDS011;52627;48.838;2.402;2023-08-12T09:04:33;7.00;;;2.40;;
65853;SDS011;52627;48.838;2.402;2023-08-12T09:07:00;6.20;;;2.30;;
65853;SDS011;52627;48.838;2.402;2023-08-12T09:09:29;7.90;;;2.40;;
65853;SDS011;52627;48.838;2.402;2023-08-12T09:11:56;6.90;;;2.40;;
65853;SDS011;52627;48.838;2.402;2023-08-12T09:14:24;6.90;;;3.00;;
65853;SDS011;52627;48.838;2.402;2023-08-12T09:16:51;5.70;;;2.40;;
65853;SDS011;52627;48.838;2.402;2023-08-12T09:19:19;7.30;;;2.60;;
65853;SDS011;52627;48.838;2.402;2023-08-12T09:21:53;6.50;;;2.60;;
65853;SDS011;52627;48.838;2.402;2023-08-12T09:24:25;5.60;;;2.30;;
65853;SDS011;52627;48.838;2.402;2023-08-12T09:26:54;5.00;;;2.10;;
65853;SDS011;52627;48.838;2.402;2023-08-12T09:29:32;6.10;;;1.90;;
65853;SDS011;52627;48.838;2.402;2023-08-12T09:32:18;7.00;;;1.80;;
65853;SDS011;52627;48.838;2.402;2023-08-12T09:37:15;5.10;;;1.50;;
65853;SDS011;52627;48.838;2.402;2023-08-12T09:39:43;4.60;;;1.70;;
65853;SDS011;52627;48.838;2.402;2023-08-12T09:42:12;4.70;;;1.60;;
65853;SDS011;52627;48.838;2.402;2023-08-12T09:44:40;6.80;;;1.80;;
65853;SDS011;52627;48.838;2.402;2023-08-12T09:47:08;6.00;;;2.00;;
65853;SDS011;52627;48.838;2.402;2023-08-12T09:49:37;6.70;;;1.90;;
65853;SDS011;52627;48.838;2.402;2023-08-12T09:52:07;5.40;;;1.60;;
65853;SDS011;52627;48.838;2.402;2023-08-12T09:54:36;6.60;;;2.00;;
65853;SDS011;52627;48.838;2.402;2023-08-12T09:57:05;5.30;;;1.70;;
65853;SDS011;52627;48.838;2.402;2023-08-12T09:59:38;5.30;;;1.60;;
65853;SDS011;52627;48.838;2.402;2023-08-12T10:02:11;5.20;;;1.70;;
65853;SDS011;52627;48.838;2.402;2023-08-12T10:04:46;6.90;;;1.70;;
65853;SDS011;52627;48.838;2.402;2023-08-12T10:07:17;6.10;;;1.40;;
65853;SDS011;52627;48.838;2.402;2023-08-12T10:09:44;7.00;;;1.70;;
65853;SDS011;52627;48.838;2.402;2023-08-12T10:12:12;7.60;;;1.60;;
65853;SDS011;52627;48.838;2.402;2023-08-12T10:14:45;6.20;;;2.00;;
65853;SDS011;52627;48.838;2.402;2023-08-12T10:17:15;5.10;;;1.60;;
65853;SDS011;52627;48.838;2.402;2023-08-12T10:20:04;5.60;;;1.70;;
65853;SDS011;52627;48.838;2.402;2023-08-12T10:22:34;4.40;;;1.80;;
65853;SDS011;52627;48.838;2.402;2023-08-12T10:25:03;5.60;;;1.70;;
65853;SDS011;52627;48.838;2.402;2023-08-12T10:27:31;4.30;;;1.40;;
65853;SDS011;52627;48.838;2.402;2023-08-12T10:29:58;7.20;;;1.60;;
65853;SDS011;52627;48.838;2.402;2023-08-12T10:32:26;5.60;;;1.50;;
65853;SDS011;52627;48.838;2.402;2023-08-12T10:34:55;3.40;;;1.30;;
65853;SDS011;52627;48.838;2.402;2023-08-12T10:37:27;4.30;;;1.40;;
65853;SDS011;52627;48.838;2.402;2023-08-12T10:39:55;4.10;;;1.20;;
65853;SDS011;52627;48.838;2.402;2023-08-12T10:45:13;3.20;;;1.30;;
65853;SDS011;52627;48.838;2.402;2023-08-12T10:48:21;5.20;;;1.70;;
65853;SDS011;52627;48.838;2.402;2023-08-12T10:50:56;3.80;;;1.20;;
65853;SDS011;52627;48.838;2.402;2023-08-12T10:53:28;5.20;;;1.40;;
65853;SDS011;52627;48.838;2.402;2023-08-12T10:56:03;4.50;;;1.40;;
65853;SDS011;52627;48.838;2.402;2023-08-12T10:58:41;4.50;;;1.60;;
65853;SDS011;52627;48.838;2.402;2023-08-12T11:01:19;3.00;;;1.10;;
65853;SDS011;52627;48.838;2.402;2023-08-12T11:03:50;4.10;;;1.30;;
65853;SDS011;52627;48.838;2.402;2023-08-12T11:06:19;5.30;;;1.60;;
65853;SDS011;52627;48.838;2.402;2023-08-12T11:08:47;3.70;;;1.10;;
65853;SDS011;52627;48.838;2.402;2023-08-12T11:11:20;2.80;;;1.10;;
65853;SDS011;52627;48.838;2.402;2023-08-12T11:14:14;2.90;;;1.10;;
65853;SDS011;52627;48.838;2.402;2023-08-12T11:16:42;3.80;;;1.30;;
65853;SDS011;52627;48.838;2.402;2023-08-12T11:19:10;3.20;;;1.00;;
65853;SDS011;52627;48.838;2.402;2023-08-12T11:21:38;5.30;;;1.30;;
65853;SDS011;52627;48.838;2.402;2023-08-12T11:24:07;3.30;;;1.20;;
65853;SDS011;52627;48.838;2.402;2023-08-12T11:26:34;4.80;;;1.30;;
65853;SDS011;52627;48.838;2.402;2023-08-12T11:29:08;3.10;;;1.20;;
65853;SDS011;52627;48.838;2.402;2023-08-12T11:31:37;4.20;;;1.30;;
65853;SDS011;52627;48.838;2.402;2023-08-12T11:34:05;4.30;;;1.30;;
65853;SDS011;52627;48.838;2.402;2023-08-12T11:36:32;3.40;;;1.30;;
65853;SDS011;52627;48.838;2.402;2023-08-12T11:39:00;3.30;;;1.10;;
65853;SDS011;52627;48.838;2.402;2023-08-12T11:41:27;3.20;;;1.30;;
65853;SDS011;52627;48.838;2.402;2023-08-12T11:43:54;4.00;;;1.00;;
65853;SDS011;52627;48.838;2.402;2023-08-12T11:46:22;4.20;;;1.20;;
65853;SDS011;52627;48.838;2.402;2023-08-12T11:48:49;3.00;;;1.30;;
65853;SDS011;52627;48.838;2.402;2023-08-12T11:51:18;4.10;;;1.30;;
65853;SDS011;52627;48.838;2.402;2023-08-12T11:53:46;2.80;;;1.10;;
65853;SDS011;52627;48.838;2.402;2023-08-12T11:56:13;4.00;;;1.10;;
65853;SDS011;52627;48.838;2.402;2023-08-12T11:58:41;4.10;;;1.10;;
65853;SDS011;52627;48.838;2.402;2023-08-12T12:01:21;3.40;;;0.90;;
65853;SDS011;52627;48.838;2.402;2023-08-12T12:03:52;3.20;;;1.00;;
65853;SDS011;52627;48.838;2.402;2023-08-12T12:06:36;3.80;;;1.30;;
65853;SDS011;52627;48.838;2.402;2023-08-12T12:09:06;3.20;;;1.10;;
65853;SDS011;52627;48.838;2.402;2023-08-12T12:11:38;3.50;;;1.10;;
65853;SDS011;52627;48.838;2.402;2023-08-12T12:14:07;3.40;;;0.90;;
65853;SDS011;52627;48.838;2.402;2023-08-12T12:16:40;4.20;;;1.00;;
65853;SDS011;52627;48.838;2.402;2023-08-12T12:19:15;3.70;;;1.10;;
65853;SDS011;52627;48.838;2.402;2023-08-12T12:21:49;2.30;;;0.80;;
65853;SDS011;52627;48.838;2.402;2023-08-12T12:24:19;3.30;;;0.90;;
65853;SDS011;52627;48.838;2.402;2023-08-12T12:26:47;4.00;;;1.10;;
65853;SDS011;52627;48.838;2.402;2023-08-12T12:29:15;5.20;;;1.10;;
65853;SDS011;52627;48.838;2.402;2023-08-12T12:31:42;3.70;;;1.20;;
65853;SDS011;52627;48.838;2.402;2023-08-12T12:34:10;3.40;;;1.50;;
65853;SDS011;52627;48.838;2.402;2023-08-12T12:36:37;3.30;;;1.60;;
65853;SDS011;52627;48.838;2.402;2023-08-12T12:39:06;2.20;;;1.00;;
65853;SDS011;52627;48.838;2.402;2023-08-12T12:41:34;2.10;;;0.90;;
65853;SDS011;52627;48.838;2.402;2023-08-12T12:44:01;2.30;;;0.90;;
65853;SDS011;52627;48.838;2.402;2023-08-12T12:46:29;3.90;;;1.00;;
65853;SDS011;52627;48.838;2.402;2023-08-12T12:48:57;3.00;;;1.00;;
65853;SDS011;52627;48.838;2.402;2023-08-12T12:51:25;3.70;;;1.00;;
65853;SDS011;52627;48.838;2.402;2023-08-12T12:53:52;4.00;;;0.90;;
65853;SDS011;52627;48.838;2.402;2023-08-12T12:56:20;2.90;;;1.00;;
65853;SDS011;52627;48.838;2.402;2023-08-12T12:58:48;3.90;;;0.90;;
65853;SDS011;52627;48.838;2.402;2023-08-12T13:01:15;4.40;;;1.30;;
65853;SDS011;52627;48.838;2.402;2023-08-12T13:03:43;2.70;;;1.10;;
65853;SDS011;52627;48.838;2.402;2023-08-12T13:06:11;4.40;;;1.10;;
65853;SDS011;52627;48.838;2.402;2023-08-12T13:08:38;3.40;;;1.10;;
65853;SDS011;52627;48.838;2.402;2023-08-12T13:11:06;4.50;;;1.20;;
65853;SDS011;52627;48.838;2.402;2023-08-12T13:13:33;2.60;;;1.00;;
65853;SDS011;52627;48.838;2.402;2023-08-12T13:16:00;5.80;;;1.60;;
65853;SDS011;52627;48.838;2.402;2023-08-12T13:18:28;3.70;;;1.30;;
65853;SDS011;52627;48.838;2.402;2023-08-12T13:20:55;4.80;;;1.40;;
65853;SDS011;52627;48.838;2.402;2023-08-12T13:23:23;4.40;;;1.60;;
65853;SDS011;52627;48.838;2.402;2023-08-12T13:25:50;3.80;;;1.20;;
65853;SDS011;52627;48.838;2.402;2023-08-12T13:28:18;3.80;;;1.40;;
65853;SDS011;52627;48.838;2.402;2023-08-12T13:30:46;4.60;;;1.40;;
65853;SDS011;52627;48.838;2.402;2023-08-12T13:33:13;4.60;;;1.40;;
65853;SDS011;52627;48.838;2.402;2023-08-12T13:35:41;3.20;;;1.20;;
65853;SDS011;52627;48.838;2.402;2023-08-12T13:38:08;3.90;;;1.10;;
65853;SDS011;52627;48.838;2.402;2023-08-12T13:40:35;2.60;;;1.00;;
65853;SDS011;52627;48.838;2.402;2023-08-12T13:43:03;4.40;;;1.30;;
65853;SDS011;52627;48.838;2.402;2023-08-12T13:45:30;4.10;;;1.20;;
65853;SDS011;52627;48.838;2.402;2023-08-12T13:47:58;3.80;;;1.30;;
65853;SDS011;52627;48.838;2.402;2023-08-12T13:50:26;4.20;;;1.30;;
65853;SDS011;52627;48.838;2.402;2023-08-12T13:52:53;4.60;;;1.40;;
65853;SDS011;52627;48.838;2.402;2023-08-12T13:55:20;4.30;;;1.20;;
65853;SDS011;52627;48.838;2.402;2023-08-12T13:57:48;3.80;;;1.10;;
65853;SDS011;52627;48.838;2.402;2023-08-12T14:00:15;5.60;;;1.30;;
65853;SDS011;52627;48.838;2.402;2023-08-12T14:02:43;3.60;;;1.10;;
65853;SDS011;52627;48.838;2.402;2023-08-12T14:05:11;3.30;;;1.20;;
65853;SDS011;52627;48.838;2.402;2023-08-12T14:07:39;3.80;;;1.10;;
65853;SDS011;52627;48.838;2.402;2023-08-12T14:10:07;4.20;;;1.30;;
65853;SDS011;52627;48.838;2.402;2023-08-12T14:12:35;4.10;;;1.20;;
65853;SDS011;52627;48.838;2.402;2023-08-12T14:15:03;4.50;;;1.30;;
65853;SDS011;52627;48.838;2.402;2023-08-12T14:17:31;4.10;;;1.40;;
65853;SDS011;52627;48.838;2.402;2023-08-12T14:19:59;3.40;;;1.20;;
65853;SDS011;52627;48.838;2.402;2023-08-12T14:22:27;3.50;;;1.40;;
65853;SDS011;52627;48.838;2.402;2023-08-12T14:24:55;5.50;;;1.20;;
65853;SDS011;52627;48.838;2.402;2023-08-12T14:27:27;4.20;;;1.20;;
65853;SDS011;52627;48.838;2.402;2023-08-12T14:29:54;6.70;;;1.70;;
65853;SDS011;52627;48.838;2.402;2023-08-12T14:32:22;3.30;;;1.20;;
65853;SDS011;52627;48.838;2.402;2023-08-12T14:34:49;3.40;;;1.30;;
65853;SDS011;52627;48.838;2.402;2023-08-12T14:37:17;4.20;;;1.20;;
65853;SDS011;52627;48.838;2.402;2023-08-12T14:39:44;5.50;;;1.40;;
65853;SDS011;52627;48.838;2.402;2023-08-12T14:42:12;2.80;;;1.10;;
65853;SDS011;52627;48.838;2.402;2023-08-12T14:44:39;6.40;;;1.30;;
65853;SDS011;52627;48.838;2.402;2023-08-12T14:47:07;4.80;;;1.40;;
65853;SDS011;52627;48.838;2.402;2023-08-12T14:49:34;4.40;;;1.40;;
65853;SDS011;52627;48.838;2.402;2023-08-12T14:52:02;3.10;;;1.10;;
65853;SDS011;52627;48.838;2.402;2023-08-12T14:54:30;7.80;;;1.70;;
65853;SDS011;52627;48.838;2.402;2023-08-12T14:56:57;5.60;;;1.40;;
65853;SDS011;52627;48.838;2.402;2023-08-12T14:59:25;6.70;;;1.50;;
65853;SDS011;52627;48.838;2.402;2023-08-12T15:01:52;3.50;;;1.30;;